Huvudsida
METAR-TAF:

METAR-TAF

Flygplatser :

Taba International Airport

Taba, Egypten

latitud: 29-35-57N, longitud: 034-46-36E, höjd: 749 m

METAR: saknas

Tid: 05:10 (03:10 UTC)

Väderprognos

Denna rapport gjordes för 4 timmar och 10 minuter sedan, klockan 23:00 UTC
Prognos gäller från 19 kl. 00 UTC till 20 kl. 06 UTC
Vind 10 kt från nord/nordväst
Sikt 10 km eller mer
Inga moln under 1 500 m eller inga cumulonimbus

TAF: HETB 182300Z 1900/2006 34010KT CAVOK

Aktuella väderrapporter och prognoser från 4000 flygplatser (METAR- och TAF-rapporter).

De tillgängliga stationerna syns som gula och röda prickar på kartan.

För musen över prickarna för att se namnen på stationerna.

Klicka sedan för att få väderrapporter och prognoser.

För att ändra kartan: Klicka på de gröna knapparna med ett svart kors på för att zooma in; den gröna knappen med ett streck på för att zooma ut; eller på de gröna pilarna för angränsande kartor.


METAR-TAF: